virtualACA

Welcome To Vancouver International Airport CYVR

Hub Roster

Pilot Domicile Rank
Brian Kozushka - ACA1102CanadaChief Pilot
Thomas Geoghegan - ACA1617United StatesChief Pilot
Michael Schwartz - ACA2511United StatesFirst Officer
Chris Woolbright - ACA3136United StatesSecond Officer
Celso Silva - ACA3173BrazilSecond Officer
Marcel De Boer - ACA3175NetherlandsNew Hire

Current Vatsim Weather


CYVR 251700Z 23013G18KT 30SM FEW045 SCT120 SCT240 17/09 A2998 RMK CU1AC2CI1 CI TR SLP154 DENSITY ALT 300FT
Vancouver International Airport